Norman, Indiana
Current Conditions -  °F | °C
As of 7:53 PM on Monday 26 Jan 2015 (Local Time) from KBMG Reporting Station
Light Snow Light Snow  
Wind Chill: 23°   Ceiling: 7000
Heat Index: 28°   Visibility: 5mi
Dew Point: 24°   Wind: 5mph
Humidity: 85%   Direction: 250°WSW
Pressure: 29.93"   Gusts: NA
Location:  38.95°N, 86.27°W
Report Text: KBMG 270053Z 25004KT 5SM -SN BR FEW045 BKN070 OVC080 M02/M04 A2993 RMK AO2 SNB28 SLP143 P0000 T10221044
Loading
Personal Weather Stations






























Interactive Weather Map New forecast layout! Learn more

10-Day Weather Forecast

Advertisements
Track Severe Weather on mobile